Time;durP1;ratioP1;P1;durP2;ratioP2;P2;SDS_P1;SDS_P2;PMS_P1;PMS_P2;Temp;Humidity;BMP_temperature;BMP_pressure;BME280_temperature;BME280_humidity;BME280_pressure;Samples;Min_cycle;Max_cycle;Signal;HPM_P1;HPM_P2
2022/04/28 00:01:48;;;;;;;6.07;3.65;;;;;;;;;;4859980;29;20100;-76
2022/04/28 00:04:14;;;;;;;5.68;4.20;;;;;;;;;;4859933;29;20028;-76
2022/04/28 00:06:40;;;;;;;8.05;3.20;;;;;;;;;;4873479;29;20029;-76
2022/04/28 00:09:07;;;;;;;6.38;4.85;;;;;;;;;;4859393;29;20509;-77
2022/04/28 00:11:33;;;;;;;7.75;4.68;;;;;;;;;;4859216;29;20025;-77
2022/04/28 00:13:59;;;;;;;8.15;4.55;;;;;;;;;;4873421;29;20033;-77
2022/04/28 00:16:26;;;;;;;5.95;3.72;;;;;;;;;;4873742;29;20397;-77
2022/04/28 00:18:52;;;;;;;5.07;3.80;;;;;;;;;;4859444;29;20037;-77
2022/04/28 00:21:19;;;;;;;6.70;5.10;;;;;;;;;;4873854;29;20078;-78
2022/04/28 00:23:45;;;;;;;4.75;3.42;;;;;;;;;;4873930;29;20029;-77
2022/04/28 00:26:11;;;;;;;8.60;4.70;;;;;;;;;;4873913;29;20033;-77
2022/04/28 00:28:37;;;;;;;5.88;4.00;;;;;;;;;;4859095;29;20033;-76
2022/04/28 00:31:03;;;;;;;6.28;5.15;;;;;;;;;;4859068;29;20042;-77
2022/04/28 00:33:29;;;;;;;8.35;5.68;;;;;;;;;;4859359;29;20500;-76
2022/04/28 00:35:56;;;;;;;8.13;6.43;;;;;;;;;;4859344;29;20510;-76
2022/04/28 00:38:22;;;;;;;6.70;5.75;;;;;;;;;;4859451;29;20110;-78
2022/04/28 00:40:48;;;;;;;7.18;5.20;;;;;;;;;;4859365;29;20098;-77
2022/04/28 00:43:20;;;;;;;10.77;6.38;;;;;;;;;;4859378;29;20474;-77
2022/04/28 00:45:47;;;;;;;8.48;6.65;;;;;;;;;;4859324;29;20068;-76
2022/04/28 00:50:59;;;;;;;8.52;5.90;;;;;;;;;;4859065;29;20532;-76
2022/04/28 00:53:27;;;;;;;8.63;6.40;;;;;;;;;;4859482;29;20397;-76
2022/04/28 00:55:53;;;;;;;8.57;6.35;;;;;;;;;;4858986;29;20021;-76
2022/04/28 00:58:19;;;;;;;8.10;6.72;;;;;;;;;;4873298;29;20025;-77
2022/04/28 01:00:46;;;;;;;9.38;8.25;;;;;;;;;;4873347;29;20025;-77
2022/04/28 01:03:12;;;;;;;7.78;6.22;;;;;;;;;;4873454;29;20029;-78
2022/04/28 01:05:39;;;;;;;8.63;6.75;;;;;;;;;;4873301;29;20051;-76
2022/04/28 01:08:06;;;;;;;9.77;7.47;;;;;;;;;;4859020;29;20522;-76
2022/04/28 01:10:32;;;;;;;10.80;7.55;;;;;;;;;;4858764;29;20069;-76
2022/04/28 01:12:58;;;;;;;8.43;7.07;;;;;;;;;;4872986;29;20041;-76
2022/04/28 01:15:24;;;;;;;8.98;6.97;;;;;;;;;;4858728;29;20465;-75
2022/04/28 01:17:50;;;;;;;10.18;6.88;;;;;;;;;;4873251;29;20029;-76
2022/04/28 01:20:16;;;;;;;9.48;7.22;;;;;;;;;;4875415;29;20041;-76
2022/04/28 01:22:42;;;;;;;10.88;7.07;;;;;;;;;;4876431;29;20054;-76
2022/04/28 01:25:09;;;;;;;8.27;6.60;;;;;;;;;;4876472;29;20034;-77
2022/04/28 01:27:36;;;;;;;8.90;7.15;;;;;;;;;;4862179;29;20090;-76
2022/04/28 01:30:12;;;;;;;9.98;7.40;;;;;;;;;;4861857;29;20557;-75
2022/04/28 01:32:39;;;;;;;10.02;7.75;;;;;;;;;;4862240;29;20359;-75
2022/04/28 01:35:05;;;;;;;10.40;7.97;;;;;;;;;;4862431;29;20025;-75
2022/04/28 01:37:31;;;;;;;9.32;8.20;;;;;;;;;;4862095;29;20116;-76
2022/04/28 01:39:57;;;;;;;11.57;8.55;;;;;;;;;;4861584;29;20029;-75
2022/04/28 01:42:24;;;;;;;11.52;8.45;;;;;;;;;;4862068;29;20041;-75
2022/04/28 01:44:50;;;;;;;15.80;8.65;;;;;;;;;;4861939;29;20032;-75
2022/04/28 01:47:17;;;;;;;8.82;5.88;;;;;;;;;;4861722;29;20022;-75
2022/04/28 01:49:43;;;;;;;10.55;8.27;;;;;;;;;;4876010;29;20382;-76
2022/04/28 01:55:05;;;;;;;11.40;7.85;;;;;;;;;;4827056;29;20043;-78
2022/04/28 01:57:31;;;;;;;10.23;6.88;;;;;;;;;;4875969;29;20036;-75
2022/04/28 02:00:00;;;;;;;11.73;7.47;;;;;;;;;;4875888;29;20025;-75
2022/04/28 02:02:26;;;;;;;9.57;6.78;;;;;;;;;;4875805;29;20026;-75
2022/04/28 02:04:58;;;;;;;12.02;7.55;;;;;;;;;;4861617;29;20057;-75
2022/04/28 02:07:25;;;;;;;13.32;7.25;;;;;;;;;;4861339;29;20018;-75
2022/04/28 02:09:51;;;;;;;9.50;7.07;;;;;;;;;;4875552;29;20038;-76
2022/04/28 02:12:17;;;;;;;10.63;7.63;;;;;;;;;;4875626;29;20097;-76
2022/04/28 02:14:43;;;;;;;9.98;7.53;;;;;;;;;;4861441;29;20489;-75
2022/04/28 02:17:09;;;;;;;10.38;8.13;;;;;;;;;;4861379;29;20057;-76
2022/04/28 02:19:35;;;;;;;11.60;7.95;;;;;;;;;;4861546;29;20042;-75
2022/04/28 02:22:02;;;;;;;10.10;7.15;;;;;;;;;;4861296;29;20029;-75
2022/04/28 02:24:28;;;;;;;12.38;6.90;;;;;;;;;;4861220;29;20026;-75
2022/04/28 02:26:54;;;;;;;10.95;7.20;;;;;;;;;;4868289;29;20021;-75
2022/04/28 02:29:20;;;;;;;10.70;7.50;;;;;;;;;;4879408;29;20041;-76
2022/04/28 02:31:46;;;;;;;12.10;7.00;;;;;;;;;;4879347;29;20052;-76
2022/04/28 02:34:12;;;;;;;10.68;7.85;;;;;;;;;;4879451;29;20029;-75
2022/04/28 02:36:38;;;;;;;10.57;7.72;;;;;;;;;;4879704;29;20062;-76
2022/04/28 02:39:04;;;;;;;11.48;7.78;;;;;;;;;;4879568;29;20048;-75
2022/04/28 02:41:31;;;;;;;13.50;8.30;;;;;;;;;;4879058;29;20045;-76
2022/04/28 02:43:57;;;;;;;11.23;7.65;;;;;;;;;;4893724;29;20085;-74
2022/04/28 02:46:23;;;;;;;10.40;7.28;;;;;;;;;;4879478;29;20032;-76
2022/04/28 02:48:49;;;;;;;11.18;8.00;;;;;;;;;;4879221;29;20025;-75
2022/04/28 02:51:15;;;;;;;13.20;9.18;;;;;;;;;;4879091;29;20029;-74
2022/04/28 02:53:42;;;;;;;12.05;7.95;;;;;;;;;;4893694;29;20029;-75
2022/04/28 02:56:08;;;;;;;10.95;7.65;;;;;;;;;;4893506;29;20491;-76
2022/04/28 02:58:34;;;;;;;12.52;8.32;;;;;;;;;;4878948;29;20378;-76
2022/04/28 03:01:01;;;;;;;10.73;8.25;;;;;;;;;;4893482;29;20037;-77
2022/04/28 03:03:27;;;;;;;9.93;7.20;;;;;;;;;;4879431;29;20029;-76
2022/04/28 03:11:31;;;;;;;12.77;8.90;;;;;;;;;;4878973;29;20458;-75
2022/04/28 03:13:57;;;;;;;12.43;8.38;;;;;;;;;;4893230;29;20029;-77
2022/04/28 03:16:24;;;;;;;11.77;9.43;;;;;;;;;;4878613;29;20460;-75
2022/04/28 03:18:50;;;;;;;11.70;8.05;;;;;;;;;;4878854;29;20021;-75
2022/04/28 03:21:16;;;;;;;12.55;8.70;;;;;;;;;;4879126;29;20036;-75
2022/04/28 03:23:42;;;;;;;11.13;8.10;;;;;;;;;;4878770;29;20040;-75
2022/04/28 03:26:08;;;;;;;9.60;7.32;;;;;;;;;;4878731;29;20076;-75
2022/04/28 03:28:35;;;;;;;12.32;8.88;;;;;;;;;;4892897;29;20081;-75
2022/04/28 03:31:03;;;;;;;12.05;9.23;;;;;;;;;;4892393;29;20459;-75
2022/04/28 03:33:29;;;;;;;12.13;8.32;;;;;;;;;;4878921;29;20017;-75
2022/04/28 03:35:55;;;;;;;12.05;8.63;;;;;;;;;;4892887;29;20080;-75
2022/04/28 03:38:22;;;;;;;10.70;8.07;;;;;;;;;;4892733;29;20036;-76
2022/04/28 03:40:48;;;;;;;11.60;8.98;;;;;;;;;;4892293;29;20056;-74
2022/04/28 03:43:14;;;;;;;10.35;7.18;;;;;;;;;;4892014;29;20033;-74
2022/04/28 03:45:41;;;;;;;11.85;7.95;;;;;;;;;;4878754;29;20028;-74
2022/04/28 03:48:11;;;;;;;13.07;9.07;;;;;;;;;;4877959;29;20419;-74
2022/04/28 03:50:37;;;;;;;19.40;10.52;;;;;;;;;;4878313;29;20037;-75
2022/04/28 03:53:04;;;;;;;37.40;17.48;;;;;;;;;;4892465;29;20033;-75
2022/04/28 03:55:30;;;;;;;21.83;11.27;;;;;;;;;;4878236;29;20032;-76
2022/04/28 03:57:57;;;;;;;18.38;10.07;;;;;;;;;;4892522;29;20100;-75
2022/04/28 04:00:23;;;;;;;14.57;9.55;;;;;;;;;;4877769;29;20029;-77
2022/04/28 04:02:49;;;;;;;12.77;8.00;;;;;;;;;;4877841;29;20465;-77
2022/04/28 04:05:16;;;;;;;9.88;6.65;;;;;;;;;;4875886;29;20546;-75
2022/04/28 04:07:43;;;;;;;9.95;7.18;;;;;;;;;;4877215;29;20405;-77
2022/04/28 04:10:10;;;;;;;13.23;9.02;;;;;;;;;;4878041;29;20139;-74
2022/04/28 04:12:37;;;;;;;10.23;7.75;;;;;;;;;;4878202;29;20051;-75
2022/04/28 04:15:03;;;;;;;12.90;7.95;;;;;;;;;;4878437;29;20077;-77
2022/04/28 04:17:29;;;;;;;14.50;9.00;;;;;;;;;;4878009;29;20057;-76
2022/04/28 04:19:55;;;;;;;11.95;8.38;;;;;;;;;;4878022;29;20029;-75
2022/04/28 04:22:21;;;;;;;14.23;9.77;;;;;;;;;;4878174;29;20026;-75
2022/04/28 04:24:47;;;;;;;13.75;8.15;;;;;;;;;;4878188;29;20029;-76
2022/04/28 04:27:15;;;;;;;12.35;9.07;;;;;;;;;;4892143;29;20021;-75
2022/04/28 04:29:41;;;;;;;10.93;8.38;;;;;;;;;;4877449;29;20565;-76
2022/04/28 04:32:24;;;;;;;14.95;9.52;;;;;;;;;;4876775;29;20484;-78
2022/04/28 04:34:51;;;;;;;10.43;7.40;;;;;;;;;;4877394;29;20021;-75
2022/04/28 04:37:17;;;;;;;17.17;8.57;;;;;;;;;;4877131;29;20029;-75
2022/04/28 04:39:44;;;;;;;12.27;8.68;;;;;;;;;;4862166;29;20025;-76
2022/04/28 04:42:10;;;;;;;13.00;7.75;;;;;;;;;;4862924;29;20404;-77
2022/04/28 04:44:37;;;;;;;15.18;8.55;;;;;;;;;;4872806;29;20034;-76
2022/04/28 04:47:03;;;;;;;13.10;9.30;;;;;;;;;;4859118;29;20022;-76
2022/04/28 04:49:30;;;;;;;12.18;8.20;;;;;;;;;;4859135;29;20041;-75
2022/04/28 04:51:56;;;;;;;18.20;13.18;;;;;;;;;;4859210;29;20021;-77
2022/04/28 04:54:22;;;;;;;12.73;9.10;;;;;;;;;;4874347;29;20026;-75
2022/04/28 04:56:48;;;;;;;16.33;10.15;;;;;;;;;;4862480;29;20109;-75
2022/04/28 04:59:14;;;;;;;11.48;8.70;;;;;;;;;;4876596;29;20037;-75
2022/04/28 05:01:40;;;;;;;14.43;9.48;;;;;;;;;;4862615;29;20033;-76
2022/04/28 05:04:06;;;;;;;14.40;10.70;;;;;;;;;;4864870;29;20038;-76
2022/04/28 05:06:32;;;;;;;16.73;10.60;;;;;;;;;;4864327;29;20105;-77
2022/04/28 05:08:58;;;;;;;17.73;10.35;;;;;;;;;;4878327;29;20021;-76
2022/04/28 05:11:25;;;;;;;20.15;13.70;;;;;;;;;;4861591;29;20036;-76
2022/04/28 05:13:51;;;;;;;15.18;11.18;;;;;;;;;;4861858;29;20355;-77
2022/04/28 05:16:17;;;;;;;13.65;9.60;;;;;;;;;;4861423;29;20026;-75
2022/04/28 05:18:43;;;;;;;12.23;8.68;;;;;;;;;;4864498;29;20025;-76
2022/04/28 05:21:09;;;;;;;17.02;10.38;;;;;;;;;;4861546;29;20029;-77
2022/04/28 05:23:35;;;;;;;14.20;9.45;;;;;;;;;;4862032;29;20025;-76
2022/04/28 05:26:01;;;;;;;24.63;16.73;;;;;;;;;;4861983;29;20025;-75
2022/04/28 05:28:30;;;;;;;17.38;10.60;;;;;;;;;;4876293;29;20053;-76
2022/04/28 05:30:56;;;;;;;12.75;8.45;;;;;;;;;;4876256;29;20443;-75
2022/04/28 05:33:23;;;;;;;17.02;11.38;;;;;;;;;;4862818;29;20054;-75
2022/04/28 05:35:49;;;;;;;13.35;8.70;;;;;;;;;;4877991;29;20025;-75
2022/04/28 05:38:15;;;;;;;27.90;17.25;;;;;;;;;;4881121;29;20040;-76
2022/04/28 05:40:42;;;;;;;29.00;18.80;;;;;;;;;;4877232;29;20602;-75
2022/04/28 05:45:54;;;;;;;15.32;10.20;;;;;;;;;;4861359;29;20044;-76
2022/04/28 05:48:21;;;;;;;15.48;9.00;;;;;;;;;;4865987;29;20141;-75
2022/04/28 05:50:47;;;;;;;11.52;8.27;;;;;;;;;;4863452;29;20535;-77
2022/04/28 05:53:14;;;;;;;14.45;9.88;;;;;;;;;;4861401;29;20028;-77
2022/04/28 05:55:41;;;;;;;13.48;9.68;;;;;;;;;;4861063;29;20454;-76
2022/04/28 05:58:07;;;;;;;15.60;9.63;;;;;;;;;;4860270;29;20025;-77
2022/04/28 06:00:34;;;;;;;15.70;9.95;;;;;;;;;;4861331;29;20109;-76
2022/04/28 06:03:00;;;;;;;10.93;8.32;;;;;;;;;;4861230;29;20036;-76
2022/04/28 06:05:27;;;;;;;11.70;7.68;;;;;;;;;;4860861;29;20029;-76
2022/04/28 06:07:53;;;;;;;13.02;7.97;;;;;;;;;;4861434;29;20030;-76
2022/04/28 06:10:20;;;;;;;11.80;8.07;;;;;;;;;;4859546;29;20044;-76
2022/04/28 06:12:46;;;;;;;13.98;8.27;;;;;;;;;;4861152;29;20056;-77
2022/04/28 06:15:14;;;;;;;10.35;7.65;;;;;;;;;;4861241;29;20029;-76
2022/04/28 06:17:40;;;;;;;12.07;8.00;;;;;;;;;;4859789;29;20088;-77
2022/04/28 06:20:06;;;;;;;12.35;7.03;;;;;;;;;;4860885;29;20022;-78
2022/04/28 06:22:32;;;;;;;9.90;6.57;;;;;;;;;;4861107;29;20029;-76
2022/04/28 06:25:01;;;;;;;13.30;8.02;;;;;;;;;;4861290;29;20029;-77
2022/04/28 06:27:28;;;;;;;12.05;6.65;;;;;;;;;;4872882;29;20050;-76
2022/04/28 06:29:55;;;;;;;10.80;7.43;;;;;;;;;;4896273;29;20128;-76
2022/04/28 06:32:21;;;;;;;11.20;7.60;;;;;;;;;;4894755;29;20397;-75
2022/04/28 06:34:47;;;;;;;13.40;7.05;;;;;;;;;;4881705;29;20029;-75
2022/04/28 06:37:17;;;;;;;12.48;6.18;;;;;;;;;;4895048;29;20029;-76
2022/04/28 06:39:43;;;;;;;11.02;7.20;;;;;;;;;;4894200;29;20035;-76
2022/04/28 06:42:09;;;;;;;10.45;7.05;;;;;;;;;;4879135;29;20086;-76
2022/04/28 06:44:36;;;;;;;10.07;6.72;;;;;;;;;;4893822;29;20073;-75
2022/04/28 06:47:05;;;;;;;8.07;6.13;;;;;;;;;;4879267;29;20021;-76
2022/04/28 06:49:33;;;;;;;9.30;5.93;;;;;;;;;;4879424;29;20541;-78
2022/04/28 06:51:59;;;;;;;7.50;5.32;;;;;;;;;;4879346;29;20177;-77
2022/04/28 06:54:25;;;;;;;12.07;5.93;;;;;;;;;;4879310;29;20021;-76
2022/04/28 06:56:51;;;;;;;6.25;4.97;;;;;;;;;;4878953;29;20032;-77
2022/04/28 06:59:17;;;;;;;8.52;5.13;;;;;;;;;;4879364;29;20032;-77
2022/04/28 07:01:43;;;;;;;7.07;4.70;;;;;;;;;;4893263;29;20025;-76
2022/04/28 07:04:09;;;;;;;6.93;5.03;;;;;;;;;;4878929;29;20025;-77
2022/04/28 07:06:35;;;;;;;7.43;4.18;;;;;;;;;;4879083;29;20029;-78
2022/04/28 07:09:02;;;;;;;7.50;4.38;;;;;;;;;;4893146;29;20081;-77
2022/04/28 07:11:28;;;;;;;5.43;4.07;;;;;;;;;;4893212;29;20444;-76
2022/04/28 07:13:54;;;;;;;8.05;4.97;;;;;;;;;;4878604;29;20029;-77
2022/04/28 07:16:20;;;;;;;6.22;4.13;;;;;;;;;;4892933;29;20142;-77
2022/04/28 07:18:46;;;;;;;13.88;5.40;;;;;;;;;;4878731;29;20025;-77
2022/04/28 07:21:12;;;;;;;15.70;4.72;;;;;;;;;;4878471;29;20036;-79
2022/04/28 07:23:38;;;;;;;6.95;4.65;;;;;;;;;;4892912;29;20029;-76
2022/04/28 07:26:04;;;;;;;7.00;4.53;;;;;;;;;;4892859;29;20066;-76
2022/04/28 07:28:30;;;;;;;4.90;3.05;;;;;;;;;;4878724;29;20029;-77
2022/04/28 07:30:56;;;;;;;7.68;4.00;;;;;;;;;;4892515;29;20044;-77
2022/04/28 07:33:22;;;;;;;5.78;4.15;;;;;;;;;;4878594;29;20107;-78
2022/04/28 07:35:48;;;;;;;9.07;4.28;;;;;;;;;;4878194;29;20029;-77
2022/04/28 07:38:14;;;;;;;8.27;5.55;;;;;;;;;;4878411;29;20025;-77
2022/04/28 07:40:40;;;;;;;8.68;5.95;;;;;;;;;;4878290;29;20049;-77
2022/04/28 07:43:07;;;;;;;7.13;5.30;;;;;;;;;;4892674;29;20120;-76
2022/04/28 07:45:33;;;;;;;7.88;5.28;;;;;;;;;;4892534;29;20077;-76
2022/04/28 07:48:00;;;;;;;7.00;5.05;;;;;;;;;;4892620;29;20029;-77
2022/04/28 07:50:29;;;;;;;8.07;4.68;;;;;;;;;;4892341;29;20079;-76
2022/04/28 07:52:55;;;;;;;5.82;4.45;;;;;;;;;;4877871;29;20031;-76
2022/04/28 07:55:21;;;;;;;6.97;4.70;;;;;;;;;;4878109;29;20025;-76
2022/04/28 07:57:47;;;;;;;6.72;4.28;;;;;;;;;;4878134;29;20032;-76
2022/04/28 08:00:14;;;;;;;6.57;4.20;;;;;;;;;;4878233;29;20021;-76
2022/04/28 08:02:40;;;;;;;7.00;5.25;;;;;;;;;;4878308;29;20025;-76
2022/04/28 08:05:06;;;;;;;7.25;4.78;;;;;;;;;;4877753;29;20025;-75
2022/04/28 08:07:33;;;;;;;7.70;4.60;;;;;;;;;;4877880;29;20485;-75
2022/04/28 08:09:59;;;;;;;6.90;4.57;;;;;;;;;;4877951;29;20048;-76
2022/04/28 08:12:25;;;;;;;7.45;5.07;;;;;;;;;;4877733;29;20547;-77
2022/04/28 08:14:51;;;;;;;4.72;3.47;;;;;;;;;;4878280;29;20029;-77
2022/04/28 08:17:17;;;;;;;8.10;5.25;;;;;;;;;;4877968;29;20029;-76
2022/04/28 08:19:43;;;;;;;8.15;4.65;;;;;;;;;;4877766;29;20401;-77
2022/04/28 08:22:09;;;;;;;5.53;3.50;;;;;;;;;;4877715;29;20035;-77
2022/04/28 08:24:36;;;;;;;7.28;4.25;;;;;;;;;;4892348;29;20028;-78
2022/04/28 08:27:02;;;;;;;5.72;3.33;;;;;;;;;;4878022;29;20025;-77
2022/04/28 08:29:28;;;;;;;5.57;4.13;;;;;;;;;;4895002;29;20040;-78
2022/04/28 08:31:54;;;;;;;7.47;4.82;;;;;;;;;;4896197;29;20029;-77
2022/04/28 08:34:22;;;;;;;7.35;4.95;;;;;;;;;;4882035;29;20148;-77
2022/04/28 08:36:48;;;;;;;9.07;4.20;;;;;;;;;;4881577;29;20017;-76
2022/04/28 08:39:15;;;;;;;4.47;3.25;;;;;;;;;;4881330;29;20505;-76
2022/04/28 08:41:44;;;;;;;5.57;3.42;;;;;;;;;;4881465;29;20064;-76
2022/04/28 08:44:15;;;;;;;6.40;3.70;;;;;;;;;;4881632;29;20123;-78
2022/04/28 08:46:53;;;;;;;3.88;2.95;;;;;;;;;;4881043;29;20080;-77
2022/04/28 08:49:22;;;;;;;6.13;3.63;;;;;;;;;;4876425;29;20032;-77
2022/04/28 08:51:48;;;;;;;5.53;3.60;;;;;;;;;;4881120;29;20421;-77
2022/04/28 08:54:14;;;;;;;4.63;3.30;;;;;;;;;;4881534;29;20061;-76
2022/04/28 08:56:41;;;;;;;4.85;3.47;;;;;;;;;;4881323;29;20029;-77
2022/04/28 08:59:07;;;;;;;10.60;3.40;;;;;;;;;;4880876;29;20064;-78
2022/04/28 09:01:33;;;;;;;5.88;4.00;;;;;;;;;;4895025;29;20076;-78
2022/04/28 09:04:01;;;;;;;6.50;3.88;;;;;;;;;;4894987;29;20029;-78
2022/04/28 09:06:29;;;;;;;6.40;4.03;;;;;;;;;;4880191;29;20028;-79
2022/04/28 09:08:55;;;;;;;4.63;2.90;;;;;;;;;;4895403;29;20033;-78
2022/04/28 09:11:26;;;;;;;5.60;3.65;;;;;;;;;;4895429;29;20124;-77
2022/04/28 09:14:18;;;;;;;6.30;3.78;;;;;;;;;;4895337;29;20104;-77
2022/04/28 09:16:47;;;;;;;4.00;2.75;;;;;;;;;;4881017;29;20023;-77
2022/04/28 09:19:24;;;;;;;4.32;2.30;;;;;;;;;;4880831;29;20033;-77
2022/04/28 09:21:55;;;;;;;6.07;3.50;;;;;;;;;;4892384;29;20053;-77
2022/04/28 09:24:22;;;;;;;6.13;3.42;;;;;;;;;;4895097;29;20393;-78
2022/04/28 09:26:49;;;;;;;3.88;2.45;;;;;;;;;;4895192;29;20029;-78
2022/04/28 09:29:16;;;;;;;7.78;3.50;;;;;;;;;;4894331;29;20495;-79
2022/04/28 09:31:44;;;;;;;4.63;3.03;;;;;;;;;;4895167;29;20025;-78
2022/04/28 09:34:14;;;;;;;4.20;2.63;;;;;;;;;;4895024;29;20022;-78
2022/04/28 09:36:41;;;;;;;3.78;2.03;;;;;;;;;;4880590;29;20108;-78
2022/04/28 09:39:08;;;;;;;6.55;3.22;;;;;;;;;;4880520;29;20527;-79
2022/04/28 09:44:20;;;;;;;4.75;3.03;;;;;;;;;;4878314;29;20535;-77
2022/04/28 09:46:47;;;;;;;7.45;3.80;;;;;;;;;;4894742;29;20044;-78
2022/04/28 09:49:16;;;;;;;5.80;4.20;;;;;;;;;;4895056;29;20028;-78
2022/04/28 09:51:42;;;;;;;5.35;3.05;;;;;;;;;;4894992;29;20036;-78
2022/04/28 09:54:10;;;;;;;3.70;2.95;;;;;;;;;;4894838;29;20025;-78
2022/04/28 09:56:36;;;;;;;4.45;2.88;;;;;;;;;;4879387;29;20058;-77
2022/04/28 09:59:05;;;;;;;3.70;2.65;;;;;;;;;;4893671;29;20025;-77
2022/04/28 10:01:31;;;;;;;4.45;2.65;;;;;;;;;;4878975;29;20032;-77
2022/04/28 10:03:57;;;;;;;4.05;2.72;;;;;;;;;;4893943;29;20347;-78
2022/04/28 10:06:25;;;;;;;5.32;3.33;;;;;;;;;;4894364;29;20029;-78
2022/04/28 10:08:52;;;;;;;4.57;2.35;;;;;;;;;;4878824;29;20030;-77
2022/04/28 10:11:22;;;;;;;3.60;2.45;;;;;;;;;;4879317;29;20041;-76
2022/04/28 10:13:49;;;;;;;3.63;2.17;;;;;;;;;;4894057;29;20045;-77
2022/04/28 10:16:16;;;;;;;4.32;2.33;;;;;;;;;;4879739;29;20069;-76
2022/04/28 10:19:02;;;;;;;4.65;3.03;;;;;;;;;;4879496;29;20382;-76
2022/04/28 10:21:38;;;;;;;4.18;2.78;;;;;;;;;;4875009;29;20388;-79
2022/04/28 10:33:02;;;;;;;3.55;2.35;;;;;;;;;;4879267;29;20044;-77
2022/04/28 10:35:46;;;;;;;3.80;2.35;;;;;;;;;;4858240;29;20041;-78
2022/04/28 10:38:23;;;;;;;5.20;3.83;;;;;;;;;;4858341;29;20056;-77
2022/04/28 10:41:03;;;;;;;2.78;1.23;;;;;;;;;;4872500;29;20057;-77
2022/04/28 10:43:33;;;;;;;5.70;3.33;;;;;;;;;;4879474;29;20025;-76
2022/04/28 10:46:22;;;;;;;4.47;3.13;;;;;;;;;;4878966;29;20025;-77
2022/04/28 10:48:52;;;;;;;4.47;3.33;;;;;;;;;;4866185;29;20029;-77
2022/04/28 10:51:30;;;;;;;3.33;2.53;;;;;;;;;;4878066;29;20088;-77
2022/04/28 10:53:56;;;;;;;7.35;3.38;;;;;;;;;;4893282;29;20029;-79
2022/04/28 10:56:26;;;;;;;4.97;3.20;;;;;;;;;;4879317;29;20073;-75
2022/04/28 10:58:56;;;;;;;5.10;3.03;;;;;;;;;;4878412;29;20175;-76
2022/04/28 11:01:26;;;;;;;4.90;3.55;;;;;;;;;;4878386;29;20029;-77
2022/04/28 11:03:57;;;;;;;4.72;1.60;;;;;;;;;;4891944;29;20073;-78
2022/04/28 11:06:34;;;;;;;2.53;1.45;;;;;;;;;;4876227;29;20032;-78
2022/04/28 11:09:01;;;;;;;4.75;2.35;;;;;;;;;;4879354;29;20021;-78
2022/04/28 11:11:29;;;;;;;5.93;2.97;;;;;;;;;;4879323;29;20120;-78
2022/04/28 11:13:57;;;;;;;3.83;2.88;;;;;;;;;;4893654;29;20029;-78
2022/04/28 11:16:24;;;;;;;4.20;2.70;;;;;;;;;;4892978;29;20119;-78
2022/04/28 11:18:50;;;;;;;4.28;2.90;;;;;;;;;;4893315;29;20037;-78
2022/04/28 11:21:16;;;;;;;5.30;3.47;;;;;;;;;;4893353;29;20113;-78
2022/04/28 11:23:44;;;;;;;6.57;4.13;;;;;;;;;;4893576;29;20021;-78
2022/04/28 11:26:11;;;;;;;5.47;4.07;;;;;;;;;;4893496;29;20025;-78
2022/04/28 11:28:37;;;;;;;4.05;2.65;;;;;;;;;;4878621;29;20033;-78
2022/04/28 11:31:14;;;;;;;5.25;3.97;;;;;;;;;;4878805;29;20108;-78
2022/04/28 11:33:42;;;;;;;11.48;5.28;;;;;;;;;;4878704;29;20105;-76
2022/04/28 11:36:21;;;;;;;5.25;2.85;;;;;;;;;;4878829;29;20048;-77
2022/04/28 11:38:51;;;;;;;6.53;4.03;;;;;;;;;;4893241;29;20029;-78
2022/04/28 11:41:22;;;;;;;8.25;3.08;;;;;;;;;;4892973;29;20053;-78
2022/04/28 11:43:49;;;;;;;6.10;3.20;;;;;;;;;;4880642;29;20028;-77
2022/04/28 11:46:16;;;;;;;7.05;4.35;;;;;;;;;;4883403;29;20481;-78
2022/04/28 11:48:42;;;;;;;6.53;4.03;;;;;;;;;;4896128;29;20059;-78
2022/04/28 11:51:09;;;;;;;6.95;4.35;;;;;;;;;;4879840;29;20052;-79
2022/04/28 11:53:45;;;;;;;4.93;3.35;;;;;;;;;;4878473;29;20751;-78
2022/04/28 11:56:33;;;;;;;3.50;2.58;;;;;;;;;;4893133;29;20762;-79
2022/04/28 11:58:59;;;;;;;5.80;4.28;;;;;;;;;;4878493;29;20385;-78
2022/04/28 12:01:26;;;;;;;4.50;2.95;;;;;;;;;;4892753;29;20039;-79
2022/04/28 12:03:53;;;;;;;6.38;5.10;;;;;;;;;;4892822;29;20025;-79
2022/04/28 12:06:20;;;;;;;4.43;3.22;;;;;;;;;;4878588;29;20025;-78
2022/04/28 12:08:50;;;;;;;6.25;4.03;;;;;;;;;;4892874;29;20081;-79
2022/04/28 12:19:31;;;;;;;5.35;3.53;;;;;;;;;;4876335;29;20048;-79
2022/04/28 12:22:03;;;;;;;9.45;4.70;;;;;;;;;;4876854;29;20422;-78
2022/04/28 12:24:33;;;;;;;4.22;2.83;;;;;;;;;;4891396;29;20029;-78
2022/04/28 12:27:06;;;;;;;3.72;2.72;;;;;;;;;;4877434;29;20357;-77
2022/04/28 12:29:32;;;;;;;8.23;4.30;;;;;;;;;;4876866;29;20045;-78
2022/04/28 12:32:00;;;;;;;4.53;3.50;;;;;;;;;;4891145;29;20153;-78
2022/04/28 12:34:26;;;;;;;7.60;4.45;;;;;;;;;;4892818;29;20029;-77
2022/04/28 12:36:57;;;;;;;5.13;3.67;;;;;;;;;;4878540;29;20029;-78
2022/04/28 12:39:24;;;;;;;5.28;3.58;;;;;;;;;;4878474;29;20021;-78
2022/04/28 12:41:52;;;;;;;6.28;3.25;;;;;;;;;;4878535;29;20045;-79
2022/04/28 12:44:18;;;;;;;8.88;4.47;;;;;;;;;;4892149;29;20068;-79
2022/04/28 12:46:49;;;;;;;7.07;4.95;;;;;;;;;;4878662;29;20021;-78
2022/04/28 12:49:18;;;;;;;6.30;4.43;;;;;;;;;;4893148;29;20021;-78
2022/04/28 12:51:44;;;;;;;7.68;3.55;;;;;;;;;;4878578;29;20021;-79
2022/04/28 12:54:17;;;;;;;7.47;4.97;;;;;;;;;;4878468;29;20065;-78
2022/04/28 12:56:44;;;;;;;5.97;2.93;;;;;;;;;;4877955;29;20031;-78
2022/04/28 12:59:13;;;;;;;4.78;3.63;;;;;;;;;;4892601;29;20025;-78
2022/04/28 13:01:39;;;;;;;4.65;2.78;;;;;;;;;;4878379;29;20025;-81
2022/04/28 13:04:06;;;;;;;6.43;4.00;;;;;;;;;;4892669;29;20029;-78
2022/04/28 13:06:33;;;;;;;5.90;3.95;;;;;;;;;;4878247;29;20148;-78
2022/04/28 13:09:00;;;;;;;5.28;3.75;;;;;;;;;;4878081;29;20022;-80
2022/04/28 13:11:28;;;;;;;7.43;3.70;;;;;;;;;;4892441;29;20060;-78
2022/04/28 13:13:54;;;;;;;14.40;4.80;;;;;;;;;;4877816;29;20389;-78
2022/04/28 13:16:21;;;;;;;4.03;2.90;;;;;;;;;;4894854;29;20029;-78
2022/04/28 13:18:47;;;;;;;6.65;3.78;;;;;;;;;;4881790;29;20053;-79
2022/04/28 13:21:15;;;;;;;8.60;4.03;;;;;;;;;;4881389;29;20025;-79
2022/04/28 13:23:41;;;;;;;4.78;3.53;;;;;;;;;;4895784;29;20115;-79
2022/04/28 13:26:08;;;;;;;8.60;4.93;;;;;;;;;;4895689;29;20033;-79
2022/04/28 13:28:34;;;;;;;6.88;4.18;;;;;;;;;;4881177;29;20029;-78
2022/04/28 13:31:00;;;;;;;5.78;4.60;;;;;;;;;;4895734;29;20098;-79
2022/04/28 13:33:26;;;;;;;6.38;4.80;;;;;;;;;;4881008;29;20497;-79
2022/04/28 13:35:52;;;;;;;8.40;5.03;;;;;;;;;;4894702;29;20025;-80
2022/04/28 13:38:18;;;;;;;4.70;2.97;;;;;;;;;;4894885;29;20029;-78
2022/04/28 13:40:44;;;;;;;6.88;4.78;;;;;;;;;;4891982;29;20091;-77
2022/04/28 13:43:10;;;;;;;8.32;6.07;;;;;;;;;;4894469;29;20089;-78
2022/04/28 13:45:37;;;;;;;7.45;5.00;;;;;;;;;;4880250;29;20093;-78
2022/04/28 13:48:03;;;;;;;6.45;4.45;;;;;;;;;;4894399;29;20124;-77
2022/04/28 13:50:29;;;;;;;4.18;2.72;;;;;;;;;;4893801;29;20085;-78
2022/04/28 13:52:55;;;;;;;8.05;5.55;;;;;;;;;;4880196;29;20081;-79
2022/04/28 13:55:21;;;;;;;10.73;4.80;;;;;;;;;;4894916;29;20564;-77
2022/04/28 13:57:48;;;;;;;10.40;5.22;;;;;;;;;;4894958;29;20021;-79
2022/04/28 14:00:14;;;;;;;7.13;4.63;;;;;;;;;;4880170;29;20081;-78
2022/04/28 14:02:41;;;;;;;7.22;5.32;;;;;;;;;;4894339;29;20052;-78
2022/04/28 14:05:08;;;;;;;14.25;4.80;;;;;;;;;;4880222;29;20025;-79
2022/04/28 14:07:36;;;;;;;14.50;9.18;;;;;;;;;;4895167;29;20081;-81
2022/04/28 14:10:03;;;;;;;6.53;4.30;;;;;;;;;;4878849;29;20150;-77
2022/04/28 14:12:29;;;;;;;12.80;9.00;;;;;;;;;;4879117;29;20025;-77
2022/04/28 14:14:55;;;;;;;12.30;5.35;;;;;;;;;;4875344;29;20500;-77
2022/04/28 14:17:21;;;;;;;11.60;5.40;;;;;;;;;;4864886;29;20026;-78
2022/04/28 14:19:47;;;;;;;8.77;5.47;;;;;;;;;;4862931;29;20022;-78
2022/04/28 14:22:17;;;;;;;12.88;7.40;;;;;;;;;;4874612;29;20014;-77
2022/04/28 14:24:44;;;;;;;18.63;12.25;;;;;;;;;;4879975;29;20024;-78
2022/04/28 14:27:11;;;;;;;13.45;9.60;;;;;;;;;;4877738;29;20023;-77
2022/04/28 14:29:37;;;;;;;4.70;3.15;;;;;;;;;;4861348;29;20113;-77
2022/04/28 14:32:03;;;;;;;10.25;6.22;;;;;;;;;;4876034;29;20022;-79
2022/04/28 14:34:30;;;;;;;7.60;4.88;;;;;;;;;;4877349;29;20036;-77
2022/04/28 14:36:56;;;;;;;11.30;6.40;;;;;;;;;;4862555;29;20025;-76
2022/04/28 14:39:22;;;;;;;16.00;11.30;;;;;;;;;;4874540;29;20025;-78
2022/04/28 14:41:49;;;;;;;9.45;5.63;;;;;;;;;;4860982;29;20110;-78
2022/04/28 14:44:15;;;;;;;8.70;6.53;;;;;;;;;;4860611;29;20041;-78
2022/04/28 14:46:42;;;;;;;14.70;9.10;;;;;;;;;;4879110;29;20053;-76
2022/04/28 14:54:40;;;;;;;9.98;7.75;;;;;;;;;;4862562;29;20048;-79
2022/04/28 14:57:06;;;;;;;9.77;6.70;;;;;;;;;;4864051;29;20021;-78
2022/04/28 14:59:32;;;;;;;11.90;8.15;;;;;;;;;;4879135;29;20029;-77
2022/04/28 15:01:58;;;;;;;10.38;8.10;;;;;;;;;;4884177;29;20026;-79
2022/04/28 15:04:24;;;;;;;10.65;8.25;;;;;;;;;;4876056;29;20025;-77
2022/04/28 15:06:50;;;;;;;10.00;6.53;;;;;;;;;;4862670;29;20017;-78
2022/04/28 15:09:17;;;;;;;7.80;5.70;;;;;;;;;;4874693;29;20018;-78
2022/04/28 15:11:43;;;;;;;7.45;5.13;;;;;;;;;;4860336;29;20033;-78
2022/04/28 15:14:10;;;;;;;4.90;3.65;;;;;;;;;;4874551;29;20017;-78
2022/04/28 15:16:36;;;;;;;10.07;4.15;;;;;;;;;;4874746;29;20030;-78